createdAt,value
2017-07-19T00:00:21.923Z,0
2017-07-19T00:01:22.244Z,0
2017-07-19T00:02:21.953Z,0
2017-07-19T00:03:21.994Z,0
2017-07-19T00:04:22.026Z,0
2017-07-19T00:05:22.061Z,0
2017-07-19T00:06:21.791Z,0
2017-07-19T00:07:22.115Z,0
2017-07-19T00:08:22.146Z,0
2017-07-19T00:09:22.486Z,0
2017-07-19T00:10:21.888Z,0
2017-07-19T00:11:22.237Z,0
2017-07-19T00:12:22.577Z,0
2017-07-19T00:13:22.290Z,0
2017-07-19T00:14:22.012Z,0
2017-07-19T00:15:22.360Z,0
2017-07-19T00:16:22.700Z,0
2017-07-19T00:17:22.729Z,0
2017-07-19T00:18:22.738Z,0
2017-07-19T00:19:22.495Z,0
2017-07-19T00:20:21.882Z,0
2017-07-19T00:21:22.541Z,0
2017-07-19T00:22:22.570Z,0
2017-07-19T00:23:22.846Z,0
2017-07-19T00:24:22.943Z,0
2017-07-19T00:25:22.344Z,0
2017-07-19T00:26:22.369Z,0
2017-07-19T00:27:22.722Z,0
2017-07-19T00:28:23.047Z,0
2017-07-19T00:29:23.088Z,0
2017-07-19T00:30:22.497Z,0
2017-07-19T00:31:22.525Z,0
2017-07-19T00:32:22.877Z,0
2017-07-19T00:33:23.155Z,0
2017-07-19T00:34:22.938Z,0
2017-07-19T00:35:22.961Z,0
2017-07-19T00:36:23.301Z,0
2017-07-19T00:37:23.023Z,0
2017-07-19T00:38:23.672Z,0
2017-07-19T00:39:22.763Z,0
2017-07-19T00:40:23.112Z,0
2017-07-19T00:41:23.163Z,0
2017-07-19T00:42:23.178Z,0
2017-07-19T00:43:23.762Z,0
2017-07-19T00:44:23.240Z,0
2017-07-19T00:45:23.269Z,0
2017-07-19T00:46:23.293Z,0
2017-07-19T00:47:23.323Z,0
2017-07-19T00:48:23.303Z,0
2017-07-19T00:49:23.388Z,0
2017-07-19T00:50:23.728Z,0
2017-07-19T00:51:23.442Z,0
2017-07-19T00:52:23.471Z,0
2017-07-19T00:53:23.756Z,0
2017-07-19T00:54:23.856Z,0
2017-07-19T00:55:23.873Z,0
2017-07-19T00:56:23.922Z,0
2017-07-19T00:57:23.931Z,0
2017-07-19T00:58:24.219Z,0
2017-07-19T00:59:23.688Z,0
2017-07-19T01:00:23.717Z,0
2017-07-19T01:01:23.748Z,0
2017-07-19T01:02:23.463Z,0
2017-07-19T01:03:24.104Z,0
2017-07-19T01:04:24.149Z,0
2017-07-19T01:05:23.878Z,0
2017-07-19T01:06:23.894Z,0
2017-07-19T01:07:23.935Z,0
2017-07-19T01:08:24.532Z,0
2017-07-19T01:09:24.301Z,0
2017-07-19T01:10:24.012Z,0
2017-07-19T01:11:24.365Z,0
2017-07-19T01:12:24.399Z,0
2017-07-19T01:13:24.730Z,0
2017-07-19T01:14:24.133Z,0
2017-07-19T01:15:24.162Z,0
2017-07-19T01:16:24.509Z,0
2017-07-19T01:17:24.545Z,0
2017-07-19T01:18:24.240Z,0
2017-07-19T01:19:24.613Z,0
2017-07-19T01:20:24.013Z,0
2017-07-19T01:21:24.662Z,0
2017-07-19T01:22:24.383Z,0
2017-07-19T01:23:24.972Z,0
2017-07-19T01:24:24.752Z,0
2017-07-19T01:25:24.474Z,0
2017-07-19T01:26:24.827Z,0
2017-07-19T01:27:24.536Z,0
2017-07-19T01:28:25.168Z,0
2017-07-19T01:29:24.901Z,0
2017-07-19T01:30:24.946Z,0
2017-07-19T01:31:24.958Z,0
2017-07-19T01:32:24.683Z,0
2017-07-19T01:33:24.962Z,0
2017-07-19T01:34:24.740Z,0
2017-07-19T01:35:24.462Z,0
2017-07-19T01:36:24.791Z,0
2017-07-19T01:37:25.143Z,0
2017-07-19T01:38:25.161Z,0
2017-07-19T01:39:25.239Z,0
2017-07-19T01:40:24.917Z,0
2017-07-19T01:41:24.635Z,0
2017-07-19T01:42:24.981Z,0
2017-07-19T01:43:25.570Z,0
2017-07-19T01:44:25.354Z,0
2017-07-19T01:45:25.388Z,0
2017-07-19T01:46:25.415Z,0
2017-07-19T01:47:25.128Z,0
2017-07-19T01:48:24.798Z,0
2017-07-19T01:49:25.514Z,0
2017-07-19T01:50:25.527Z,0
2017-07-19T01:51:25.259Z,0
2017-07-19T01:52:25.284Z,0
2017-07-19T01:53:25.326Z,0
2017-07-19T01:54:25.651Z,0
2017-07-19T01:55:25.679Z,0
2017-07-19T01:56:25.703Z,0
2017-07-19T01:57:25.429Z,0
2017-07-19T01:58:26.089Z,0
2017-07-19T01:59:25.804Z,0
2017-07-19T02:00:25.510Z,0
2017-07-19T02:01:25.239Z,0
2017-07-19T02:02:25.577Z,0
2017-07-19T02:03:26.166Z,0
2017-07-19T02:04:25.950Z,0
2017-07-19T02:05:25.975Z,0
2017-07-19T02:06:25.697Z,0
2017-07-19T02:07:25.745Z,0
2017-07-19T02:08:26.054Z,0
2017-07-19T02:09:26.122Z,0
2017-07-19T02:10:26.132Z,0
2017-07-19T02:11:26.161Z,0
2017-07-19T02:12:25.877Z,0
2017-07-19T02:13:26.469Z,0
2017-07-19T02:14:26.259Z,0
2017-07-19T02:15:26.292Z,0
2017-07-19T02:16:26.320Z,0
2017-07-19T02:17:25.709Z,0
2017-07-19T02:18:26.358Z,0
2017-07-19T02:19:26.098Z,0
2017-07-19T02:20:26.118Z,0
2017-07-19T02:21:26.148Z,0
2017-07-19T02:22:25.871Z,0
2017-07-19T02:23:26.465Z,0
2017-07-19T02:24:26.241Z,0
2017-07-19T02:25:26.268Z,0
2017-07-19T02:26:25.993Z,0
2017-07-19T02:27:26.324Z,0
2017-07-19T02:28:26.606Z,0
2017-07-19T02:29:26.392Z,0
2017-07-19T02:30:26.119Z,0
2017-07-19T02:31:26.445Z,0
2017-07-19T02:32:26.793Z,0
2017-07-19T02:33:26.815Z,0
2017-07-19T02:34:26.551Z,0
2017-07-19T02:35:26.568Z,0
2017-07-19T02:36:26.925Z,0
2017-07-19T02:37:26.626Z,0
2017-07-19T02:38:26.598Z,0
2017-07-19T02:39:26.379Z,0
2017-07-19T02:40:26.412Z,0
2017-07-19T02:41:27.076Z,0
2017-07-19T02:42:26.778Z,0
2017-07-19T02:43:27.422Z,0
2017-07-19T02:44:26.839Z,0
2017-07-19T02:45:26.249Z,0
2017-07-19T02:46:26.900Z,0
2017-07-19T02:47:26.949Z,0
2017-07-19T02:48:27.526Z,0
2017-07-19T02:49:27.007Z,0
2017-07-19T02:50:27.057Z,0
2017-07-19T02:51:27.357Z,0
2017-07-19T02:52:27.094Z,0
2017-07-19T02:53:27.118Z,0
2017-07-19T02:54:26.836Z,0
2017-07-19T02:55:27.489Z,0
2017-07-19T02:56:26.893Z,0
2017-07-19T02:57:27.539Z,0
2017-07-19T02:58:27.258Z,0
2017-07-19T02:59:26.972Z,0
2017-07-19T03:00:27.633Z,0
2017-07-19T03:01:27.670Z,0
2017-07-19T03:02:27.062Z,0
2017-07-19T03:03:27.412Z,0
2017-07-19T03:04:27.141Z,0
2017-07-19T03:05:27.777Z,0
2017-07-19T03:06:27.810Z,0
2017-07-19T03:07:27.215Z,0
2017-07-19T03:08:27.868Z,0
2017-07-19T03:09:27.273Z,0
2017-07-19T03:10:27.925Z,0
2017-07-19T03:11:27.646Z,0
2017-07-19T03:12:27.683Z,0
2017-07-19T03:13:27.392Z,0
2017-07-19T03:14:28.041Z,0
2017-07-19T03:15:27.762Z,0
2017-07-19T03:16:27.190Z,0
2017-07-19T03:17:27.199Z,0
2017-07-19T03:18:27.864Z,0
2017-07-19T03:19:28.445Z,0
2017-07-19T03:20:27.918Z,0
2017-07-19T03:21:27.626Z,4
2017-07-19T03:22:27.991Z,4
2017-07-19T03:23:28.316Z,4
2017-07-19T03:24:28.645Z,0
2017-07-19T03:25:27.761Z,4
2017-07-19T03:26:28.422Z,4
2017-07-19T03:27:28.422Z,4
2017-07-19T03:28:28.464Z,4
2017-07-19T03:29:28.445Z,4
2017-07-19T03:30:28.519Z,8
2017-07-19T03:31:28.251Z,8
2017-07-19T03:32:28.287Z,8
2017-07-19T03:33:28.617Z,8
2017-07-19T03:34:28.629Z,12
2017-07-19T03:35:28.358Z,12
2017-07-19T03:36:28.411Z,12
2017-07-19T03:37:27.799Z,16
2017-07-19T03:38:28.463Z,20
2017-07-19T03:39:28.737Z,20
2017-07-19T03:40:28.210Z,20
2017-07-19T03:41:28.223Z,24
2017-07-19T03:42:28.583Z,24
2017-07-19T03:43:28.912Z,28
2017-07-19T03:44:28.574Z,32
2017-07-19T03:45:28.974Z,32
2017-07-19T03:46:28.694Z,36
2017-07-19T03:47:28.712Z,44
2017-07-19T03:48:28.762Z,44
2017-07-19T03:49:29.073Z,52
2017-07-19T03:50:29.122Z,52
2017-07-19T03:51:29.147Z,56
2017-07-19T03:52:28.867Z,64
2017-07-19T03:53:29.204Z,68
2017-07-19T03:54:29.233Z,72
2017-07-19T03:55:28.638Z,76
2017-07-19T03:56:28.996Z,84
2017-07-19T03:57:29.327Z,88
2017-07-19T03:58:28.727Z,92
2017-07-19T03:59:29.334Z,96
2017-07-19T04:00:29.435Z,104
2017-07-19T04:01:29.446Z,112
2017-07-19T04:02:28.849Z,120
2017-07-19T04:03:29.196Z,128
2017-07-19T04:04:29.533Z,140
2017-07-19T04:05:29.244Z,148
2017-07-19T04:06:29.316Z,156
2017-07-19T04:07:29.314Z,156
2017-07-19T04:08:29.356Z,164
2017-07-19T04:09:29.683Z,168
2017-07-19T04:10:29.098Z,172
2017-07-19T04:11:29.421Z,176
2017-07-19T04:12:29.472Z,184
2017-07-19T04:13:29.520Z,192
2017-07-19T04:14:29.768Z,204
2017-07-19T04:15:29.555Z,212
2017-07-19T04:16:29.573Z,224
2017-07-19T04:17:29.308Z,236
2017-07-19T04:18:29.333Z,248
2017-07-19T04:19:29.966Z,256
2017-07-19T04:20:29.386Z,260
2017-07-19T04:21:29.724Z,260
2017-07-19T04:22:29.464Z,264
2017-07-19T04:23:30.100Z,268
2017-07-19T04:24:29.761Z,276
2017-07-19T04:25:29.846Z,280
2017-07-19T04:26:29.878Z,288
2017-07-19T04:27:29.908Z,288
2017-07-19T04:28:29.934Z,296
2017-07-19T04:29:30.573Z,304
2017-07-19T04:30:30.311Z,308
2017-07-19T04:31:29.744Z,316
2017-07-19T04:32:30.369Z,320
2017-07-19T04:33:29.785Z,324
2017-07-19T04:34:29.802Z,332
2017-07-19T04:35:30.146Z,336
2017-07-19T04:36:30.496Z,348
2017-07-19T04:37:30.525Z,352
2017-07-19T04:38:30.557Z,360
2017-07-19T04:39:30.570Z,364
2017-07-19T04:40:29.985Z,372
2017-07-19T04:41:30.320Z,380
2017-07-19T04:42:30.663Z,384
2017-07-19T04:43:30.073Z,392
2017-07-19T04:44:30.729Z,396
2017-07-19T04:45:30.379Z,400
2017-07-19T04:46:30.163Z,408
2017-07-19T04:47:30.813Z,412
2017-07-19T04:48:30.849Z,416
2017-07-19T04:49:30.566Z,420
2017-07-19T04:50:31.150Z,432
2017-07-19T04:51:30.938Z,436
2017-07-19T04:52:30.953Z,440
2017-07-19T04:53:30.682Z,444
2017-07-19T04:54:31.022Z,452
2017-07-19T04:55:30.683Z,460
2017-07-19T04:56:30.770Z,464
2017-07-19T04:57:30.793Z,468
2017-07-19T04:58:30.517Z,472
2017-07-19T04:59:30.859Z,480
2017-07-19T05:00:31.143Z,488
2017-07-19T05:01:30.602Z,492
2017-07-19T05:02:30.941Z,500
2017-07-19T05:03:30.986Z,508
2017-07-19T05:04:30.722Z,512
2017-07-19T05:05:31.331Z,520
2017-07-19T05:06:31.059Z,524
2017-07-19T05:07:30.791Z,532
2017-07-19T05:08:30.814Z,536
2017-07-19T05:09:31.155Z,540
2017-07-19T05:10:31.127Z,548
2017-07-19T05:11:30.897Z,552
2017-07-19T05:12:31.245Z,556
2017-07-19T05:13:31.590Z,564
2017-07-19T05:14:30.987Z,568
2017-07-19T05:15:31.895Z,568
2017-07-19T05:16:30.743Z,572
2017-07-19T05:17:31.080Z,580
2017-07-19T05:18:31.422Z,580
2017-07-19T05:19:31.134Z,584
2017-07-19T05:20:31.732Z,588
2017-07-19T05:21:31.204Z,588
2017-07-19T05:22:31.577Z,596
2017-07-19T05:23:30.942Z,600
2017-07-19T05:24:31.915Z,604
2017-07-19T05:25:32.188Z,608
2017-07-19T05:26:31.349Z,612
2017-07-19T05:27:31.380Z,616
2017-07-19T05:28:31.718Z,616
2017-07-19T05:29:31.459Z,624
2017-07-19T05:30:32.066Z,624
2017-07-19T05:31:32.122Z,628
2017-07-19T05:32:32.205Z,632
2017-07-19T05:33:32.178Z,636
2017-07-19T05:34:31.630Z,640
2017-07-19T05:35:31.876Z,648
2017-07-19T05:36:32.268Z,648
2017-07-19T05:37:32.292Z,652
2017-07-19T05:38:31.711Z,656
2017-07-19T05:39:32.048Z,660
2017-07-19T05:40:32.688Z,664
2017-07-19T05:41:32.109Z,668
2017-07-19T05:42:31.822Z,672
2017-07-19T05:43:32.157Z,676
2017-07-19T05:44:32.508Z,680
2017-07-19T05:45:32.836Z,680
2017-07-19T05:46:32.257Z,684
2017-07-19T05:47:32.597Z,688
2017-07-19T05:48:32.315Z,692
2017-07-19T05:49:32.342Z,696
2017-07-19T05:50:32.639Z,704
2017-07-19T05:51:32.712Z,712
2017-07-19T05:52:32.450Z,716
2017-07-19T05:53:32.775Z,716
2017-07-19T05:54:31.875Z,724
2017-07-19T05:55:32.456Z,724
2017-07-19T05:56:32.549Z,728
2017-07-19T05:57:32.574Z,732
2017-07-19T05:58:32.931Z,732
2017-07-19T05:59:32.952Z,736
2017-07-19T06:00:32.924Z,740
2017-07-19T06:01:32.697Z,744
2017-07-19T06:02:32.734Z,748
2017-07-19T06:03:32.776Z,752
2017-07-19T06:04:33.103Z,756
2017-07-19T06:05:33.152Z,756
2017-07-19T06:06:32.850Z,764
2017-07-19T06:07:32.879Z,764
2017-07-19T06:08:32.899Z,768
2017-07-19T06:09:33.259Z,768
2017-07-19T06:10:32.909Z,768
2017-07-19T06:11:33.005Z,772
2017-07-19T06:12:33.346Z,776
2017-07-19T06:13:33.374Z,780
2017-07-19T06:14:33.116Z,780
2017-07-19T06:15:33.367Z,784
2017-07-19T06:16:33.153Z,784
2017-07-19T06:17:33.183Z,788
2017-07-19T06:18:33.223Z,792
2017-07-19T06:19:32.919Z,796
2017-07-19T06:20:32.976Z,796
2017-07-19T06:21:33.298Z,796
2017-07-19T06:22:33.022Z,796
2017-07-19T06:23:33.364Z,800
2017-07-19T06:24:33.067Z,804
2017-07-19T06:25:33.101Z,808
2017-07-19T06:26:33.449Z,812
2017-07-19T06:27:33.163Z,816
2017-07-19T06:28:33.838Z,824
2017-07-19T06:29:33.536Z,828
2017-07-19T06:30:33.571Z,832
2017-07-19T06:31:33.286Z,832
2017-07-19T06:32:33.621Z,836
2017-07-19T06:33:33.364Z,840
2017-07-19T06:34:33.997Z,848
2017-07-19T06:35:34.032Z,852
2017-07-19T06:36:34.062Z,856
2017-07-19T06:37:34.086Z,860
2017-07-19T06:38:33.496Z,868
2017-07-19T06:39:33.840Z,872
2017-07-19T06:40:34.166Z,876
2017-07-19T06:41:34.197Z,884
2017-07-19T06:42:33.932Z,888
2017-07-19T06:43:34.270Z,892
2017-07-19T06:44:34.293Z,892
2017-07-19T06:45:34.013Z,896
2017-07-19T06:46:33.983Z,892
2017-07-19T06:47:33.761Z,896
2017-07-19T06:48:34.104Z,892
2017-07-19T06:49:34.135Z,896
2017-07-19T06:50:34.157Z,896
2017-07-19T06:51:34.443Z,892
2017-07-19T06:52:34.520Z,892
2017-07-19T06:53:34.254Z,892
2017-07-19T06:54:34.282Z,888
2017-07-19T06:55:34.628Z,888
2017-07-19T06:56:34.905Z,888
2017-07-19T06:57:34.378Z,884
2017-07-19T06:58:34.400Z,888
2017-07-19T06:59:34.740Z,888
2017-07-19T07:00:34.456Z,892
2017-07-19T07:01:34.802Z,900
2017-07-19T07:02:33.904Z,904
2017-07-19T07:03:34.863Z,908
2017-07-19T07:04:34.884Z,912
2017-07-19T07:05:33.990Z,916
2017-07-19T07:06:34.647Z,920
2017-07-19T07:07:34.665Z,928
2017-07-19T07:08:34.705Z,932
2017-07-19T07:09:34.416Z,936
2017-07-19T07:10:34.761Z,944
2017-07-19T07:11:35.047Z,948
2017-07-19T07:12:34.512Z,956
2017-07-19T07:13:34.843Z,956
2017-07-19T07:14:34.574Z,960
2017-07-19T07:15:35.230Z,964
2017-07-19T07:16:35.491Z,964
2017-07-19T07:17:34.968Z,972
2017-07-19T07:18:35.001Z,976
2017-07-19T07:19:35.033Z,980
2017-07-19T07:20:35.370Z,984
2017-07-19T07:21:35.344Z,992
2017-07-19T07:22:35.116Z,996
2017-07-19T07:23:35.152Z,1000
2017-07-19T07:24:35.497Z,1008
2017-07-19T07:25:34.898Z,1012
2017-07-19T07:26:35.851Z,1012
2017-07-19T07:27:35.572Z,1020
2017-07-19T07:28:35.620Z,1024
2017-07-19T07:29:35.026Z,1032
2017-07-19T07:30:35.358Z,1036
2017-07-19T07:31:35.328Z,1040
2017-07-19T07:32:35.428Z,1044
2017-07-19T07:33:35.452Z,1052
2017-07-19T07:34:35.787Z,1056
2017-07-19T07:35:35.206Z,1064
2017-07-19T07:36:34.915Z,1068
2017-07-19T07:37:35.260Z,1076
2017-07-19T07:38:35.928Z,1076
2017-07-19T07:39:35.945Z,1084
2017-07-19T07:40:35.978Z,1092
2017-07-19T07:41:35.690Z,1096
2017-07-19T07:42:35.720Z,1104
2017-07-19T07:43:35.754Z,1108
2017-07-19T07:44:35.459Z,1112
2017-07-19T07:45:35.494Z,1116
2017-07-19T07:46:36.167Z,1120
2017-07-19T07:47:35.869Z,1124
2017-07-19T07:48:35.905Z,1128
2017-07-19T07:49:36.241Z,1132
2017-07-19T07:50:35.959Z,1140
2017-07-19T07:51:35.999Z,1144
2017-07-19T07:52:36.312Z,1156
2017-07-19T07:53:36.068Z,1164
2017-07-19T07:54:36.082Z,1172
2017-07-19T07:55:36.112Z,1176
2017-07-19T07:56:36.152Z,1180
2017-07-19T07:57:36.113Z,1188
2017-07-19T07:58:35.891Z,1192
2017-07-19T07:59:36.551Z,1196
2017-07-19T08:00:36.259Z,1200
2017-07-19T08:01:36.015Z,1204
2017-07-19T08:02:36.570Z,1208
2017-07-19T08:03:36.357Z,1216
2017-07-19T08:04:36.383Z,1224
2017-07-19T08:05:36.414Z,1228
2017-07-19T08:06:36.771Z,1232
2017-07-19T08:07:37.025Z,1236
2017-07-19T08:08:36.834Z,1240
2017-07-19T08:09:36.219Z,1244
2017-07-19T08:10:36.563Z,1248
2017-07-19T08:11:36.278Z,1248
2017-07-19T08:12:36.985Z,1252
2017-07-19T08:13:36.701Z,1260
2017-07-19T08:14:36.982Z,1264
2017-07-19T08:15:37.024Z,1272
2017-07-19T08:16:37.069Z,1276
2017-07-19T08:17:37.077Z,1284
2017-07-19T08:18:36.803Z,1284
2017-07-19T08:19:36.215Z,1292
2017-07-19T08:20:37.179Z,1300
2017-07-19T08:21:36.892Z,1308
2017-07-19T08:22:36.913Z,1312
2017-07-19T08:23:36.650Z,1320
2017-07-19T08:24:36.364Z,1328
2017-07-19T08:25:36.396Z,1328
2017-07-19T08:26:37.049Z,1332
2017-07-19T08:27:37.329Z,1340
2017-07-19T08:28:37.127Z,1344
2017-07-19T08:29:37.131Z,1352
2017-07-19T08:30:37.164Z,1356
2017-07-19T08:31:37.197Z,1368
2017-07-19T08:32:37.794Z,1372
2017-07-19T08:33:37.563Z,1380
2017-07-19T08:34:37.286Z,1392
2017-07-19T08:35:37.014Z,1404
2017-07-19T08:36:37.027Z,1428
2017-07-19T08:37:37.631Z,1420
2017-07-19T08:38:37.715Z,1428
2017-07-19T08:39:37.775Z,1432
2017-07-19T08:40:36.853Z,1436
2017-07-19T08:41:37.513Z,1440
2017-07-19T08:42:38.097Z,1440
2017-07-19T08:43:37.572Z,1444
2017-07-19T08:44:37.605Z,1452
2017-07-19T08:45:37.668Z,1464
2017-07-19T08:46:37.349Z,1476
2017-07-19T08:47:38.290Z,1488
2017-07-19T08:48:37.727Z,1500
2017-07-19T08:49:37.428Z,1512
2017-07-19T08:50:38.085Z,1524
2017-07-19T08:51:38.109Z,1536
2017-07-19T08:52:37.826Z,1544
2017-07-19T08:53:37.863Z,1560
2017-07-19T08:54:37.888Z,1580
2017-07-19T08:55:37.917Z,1604
2017-07-19T08:56:37.973Z,1616
2017-07-19T08:57:37.342Z,1632
2017-07-19T08:58:38.286Z,1644
2017-07-19T08:59:37.433Z,1660
2017-07-19T09:00:38.068Z,1684
2017-07-19T09:01:38.101Z,1704
2017-07-19T09:02:38.135Z,1716
2017-07-19T09:03:38.787Z,1736
2017-07-19T09:04:38.196Z,1752
2017-07-19T09:05:38.217Z,1772
2017-07-19T09:06:38.251Z,1792
2017-07-19T09:07:37.938Z,1812
2017-07-19T09:08:38.931Z,1828
2017-07-19T09:09:38.657Z,1832
2017-07-19T09:10:38.401Z,1828
2017-07-19T09:11:38.093Z,1816
2017-07-19T09:12:38.757Z,1820
2017-07-19T09:13:38.404Z,1836
2017-07-19T09:14:38.498Z,1864
2017-07-19T09:15:38.214Z,1892
2017-07-19T09:16:37.925Z,1924
2017-07-19T09:17:38.275Z,1940
2017-07-19T09:18:38.956Z,1948
2017-07-19T09:19:38.968Z,1940
2017-07-19T09:20:38.058Z,1936
2017-07-19T09:21:38.395Z,1936
2017-07-19T09:22:38.447Z,1940
2017-07-19T09:23:39.020Z,1944
2017-07-19T09:24:38.801Z,1944
2017-07-19T09:25:38.830Z,1952
2017-07-19T09:26:38.866Z,1960
2017-07-19T09:27:38.887Z,1964
2017-07-19T09:28:39.229Z,1968
2017-07-19T09:29:38.969Z,1980
2017-07-19T09:30:38.982Z,1996
2017-07-19T09:31:39.022Z,2012
2017-07-19T09:32:39.036Z,2040
2017-07-19T09:33:39.366Z,2064
2017-07-19T09:34:38.793Z,2080
2017-07-19T09:35:38.823Z,2096
2017-07-19T09:36:39.162Z,2124
2017-07-19T09:37:39.188Z,2156
2017-07-19T09:38:39.829Z,2180
2017-07-19T09:39:39.257Z,2196
2017-07-19T09:40:39.285Z,2220
2017-07-19T09:41:39.000Z,2248
2017-07-19T09:42:39.045Z,2272
2017-07-19T09:43:39.997Z,2288
2017-07-19T09:44:39.095Z,2308
2017-07-19T09:45:39.751Z,2328
2017-07-19T09:46:39.474Z,2364
2017-07-19T09:47:39.815Z,2400
2017-07-19T09:48:40.093Z,2432
2017-07-19T09:49:39.545Z,2468
2017-07-19T09:50:39.599Z,2512
2017-07-19T09:51:39.720Z,2552
2017-07-19T09:52:39.648Z,2612
2017-07-19T09:53:39.997Z,2684
2017-07-19T09:54:40.062Z,2760
2017-07-19T09:55:39.738Z,2856
2017-07-19T09:56:39.767Z,2968
2017-07-19T09:57:39.801Z,3112
2017-07-19T09:58:40.090Z,3284
2017-07-19T09:59:39.878Z,3456
2017-07-19T10:00:39.589Z,3664
2017-07-19T10:01:39.924Z,3900
2017-07-19T10:02:39.962Z,4156
2017-07-19T10:03:39.927Z,4460
2017-07-19T10:04:40.015Z,4796
2017-07-19T10:05:39.744Z,5128
2017-07-19T10:06:40.388Z,5400
2017-07-19T10:07:40.111Z,5540
2017-07-19T10:08:40.437Z,5552
2017-07-19T10:09:40.492Z,5488
2017-07-19T10:10:40.196Z,5400
2017-07-19T10:11:40.225Z,5312
2017-07-19T10:12:39.962Z,5384
2017-07-19T10:13:40.859Z,5512
2017-07-19T10:14:40.645Z,5636
2017-07-19T10:15:40.663Z,5784
2017-07-19T10:16:40.384Z,5960
2017-07-19T10:17:40.733Z,6112
2017-07-19T10:18:40.694Z,6200
2017-07-19T10:19:40.471Z,6248
2017-07-19T10:20:40.208Z,6276
2017-07-19T10:21:40.533Z,6292
2017-07-19T10:22:40.565Z,6284
2017-07-19T10:23:40.847Z,6308
2017-07-19T10:24:40.931Z,6380
2017-07-19T10:25:40.655Z,6416
2017-07-19T10:26:40.704Z,6464
2017-07-19T10:27:41.030Z,6480
2017-07-19T10:28:41.049Z,6468
2017-07-19T10:29:40.472Z,6456
2017-07-19T10:30:40.508Z,6464
2017-07-19T10:31:41.161Z,6484
2017-07-19T10:32:41.186Z,6508
2017-07-19T10:33:40.894Z,6532
2017-07-19T10:34:41.256Z,6564
2017-07-19T10:35:41.280Z,6596
2017-07-19T10:36:41.025Z,6604
2017-07-19T10:37:41.022Z,6592
2017-07-19T10:38:41.318Z,6556
2017-07-19T10:39:41.416Z,6496
2017-07-19T10:40:41.116Z,6428
2017-07-19T10:41:41.156Z,6364
2017-07-19T10:42:41.179Z,6320
2017-07-19T10:43:40.900Z,6296
2017-07-19T10:44:41.572Z,6268
2017-07-19T10:45:40.963Z,6240
2017-07-19T10:46:41.298Z,6212
2017-07-19T10:47:41.026Z,6212
2017-07-19T10:48:41.371Z,6212
2017-07-19T10:49:41.096Z,6224
2017-07-19T10:50:41.421Z,6228
2017-07-19T10:51:41.778Z,6236
2017-07-19T10:52:41.483Z,6236
2017-07-19T10:53:41.530Z,6236
2017-07-19T10:54:41.236Z,6228
2017-07-19T10:55:41.594Z,6220
2017-07-19T10:56:41.305Z,6216
2017-07-19T10:57:41.958Z,6220
2017-07-19T10:58:41.376Z,6188
2017-07-19T10:59:41.960Z,6144
2017-07-19T11:00:42.054Z,6072
2017-07-19T11:01:42.093Z,5980
2017-07-19T11:02:41.824Z,5856
2017-07-19T11:03:41.820Z,5728
2017-07-19T11:04:41.809Z,5676
2017-07-19T11:05:41.582Z,5700
2017-07-19T11:06:41.923Z,5788
2017-07-19T11:07:41.955Z,5824
2017-07-19T11:08:41.675Z,5804
2017-07-19T11:09:42.312Z,5752
2017-07-19T11:10:42.362Z,5632
2017-07-19T11:11:42.386Z,5556
2017-07-19T11:12:42.417Z,5572
2017-07-19T11:13:42.455Z,5604
2017-07-19T11:14:42.466Z,5704
2017-07-19T11:15:42.194Z,5852
2017-07-19T11:16:42.543Z,6120
2017-07-19T11:17:42.591Z,6484
2017-07-19T11:18:42.623Z,6876
2017-07-19T11:19:42.009Z,7184
2017-07-19T11:20:42.681Z,7544
2017-07-19T11:21:42.411Z,8016
2017-07-19T11:22:42.123Z,8812
2017-07-19T11:23:42.792Z,9600
2017-07-19T11:24:42.426Z,10672
2017-07-19T11:25:42.522Z,10760
2017-07-19T11:26:42.542Z,10044
2017-07-19T11:27:42.573Z,9200
2017-07-19T11:28:42.613Z,8732
2017-07-19T11:29:42.617Z,9288
2017-07-19T11:30:42.975Z,9968
2017-07-19T11:31:42.695Z,9472
2017-07-19T11:32:42.715Z,9780
2017-07-19T11:33:43.068Z,10604
2017-07-19T11:34:42.414Z,11372
2017-07-19T11:35:43.134Z,11868
2017-07-19T11:36:43.171Z,12544
2017-07-19T11:37:43.200Z,13532
2017-07-19T11:38:42.637Z,13912
2017-07-19T11:39:43.199Z,13484
2017-07-19T11:40:42.677Z,14784
2017-07-19T11:41:43.015Z,14280
2017-07-19T11:42:43.356Z,12140
2017-07-19T11:43:43.389Z,13532
2017-07-19T11:44:43.719Z,22400
2017-07-19T11:45:42.835Z,27680
2017-07-19T11:46:43.164Z,26464
2017-07-19T11:47:43.508Z,37248
2017-07-19T11:48:42.916Z,37344
2017-07-19T11:49:43.519Z,28960
2017-07-19T11:50:43.619Z,38816
2017-07-19T11:51:43.325Z,39136
2017-07-19T11:52:43.061Z,13684
2017-07-19T11:53:43.705Z,19872
2017-07-19T11:54:43.989Z,16396
2017-07-19T11:55:43.159Z,14568
2017-07-19T11:56:43.491Z,13824
2017-07-19T11:57:43.213Z,22880
2017-07-19T11:58:43.877Z,12968
2017-07-19T11:59:43.545Z,14484
2017-07-19T12:00:43.302Z,23232
2017-07-19T12:01:43.663Z,10344
2017-07-19T12:02:43.685Z,9568
2017-07-19T12:03:43.414Z,10336
2017-07-19T12:04:44.026Z,13520
2017-07-19T12:05:43.787Z,10176
2017-07-19T12:06:43.836Z,9432
2017-07-19T12:07:44.158Z,11976
2017-07-19T12:08:43.881Z,17640
2017-07-19T12:09:44.526Z,51104
2017-07-19T12:10:44.270Z,50528
2017-07-19T12:11:43.719Z,48224
2017-07-19T12:12:44.013Z,21216
2017-07-19T12:13:44.034Z,32256
2017-07-19T12:14:44.645Z,37600
2017-07-19T12:15:44.110Z,45248
2017-07-19T12:16:44.144Z,42560
2017-07-19T12:17:44.177Z,44160
2017-07-19T12:18:44.229Z,44608
2017-07-19T12:19:44.507Z,34976
2017-07-19T12:20:43.964Z,39360
2017-07-19T12:21:44.620Z,36608
2017-07-19T12:22:44.033Z,15508
2017-07-19T12:23:44.374Z,17172
2017-07-19T12:24:44.978Z,25792
2017-07-19T12:25:44.443Z,35392
2017-07-19T12:26:44.165Z,40160
2017-07-19T12:27:44.517Z,43584
2017-07-19T12:28:44.538Z,38688
2017-07-19T12:29:44.819Z,15616
2017-07-19T12:30:44.623Z,11156
2017-07-19T12:31:44.350Z,11972
2017-07-19T12:32:44.372Z,15204
2017-07-19T12:33:44.709Z,29568
2017-07-19T12:34:44.690Z,32352
2017-07-19T12:35:45.100Z,41536
2017-07-19T12:36:44.831Z,65408
2017-07-19T12:37:44.853Z,22528
2017-07-19T12:38:44.870Z,26144
2017-07-19T12:39:45.221Z,24832
2017-07-19T12:40:44.636Z,31712
2017-07-19T12:41:44.989Z,41760
2017-07-19T12:42:45.323Z,39328
2017-07-19T12:43:45.361Z,51872
2017-07-19T12:44:45.705Z,47936
2017-07-19T12:45:45.433Z,52672
2017-07-19T12:46:45.162Z,51072
2017-07-19T12:47:45.507Z,42240
2017-07-19T12:48:44.919Z,45248
2017-07-19T12:49:45.811Z,45824
2017-07-19T12:50:45.306Z,48800
2017-07-19T12:51:45.334Z,48352
2017-07-19T12:52:45.370Z,50752
2017-07-19T12:53:45.392Z,49440
2017-07-19T12:54:45.695Z,52256
2017-07-19T12:55:45.465Z,52320
2017-07-19T12:56:45.504Z,52032
2017-07-19T12:57:45.542Z,57312
2017-07-19T12:58:45.892Z,60160
2017-07-19T12:59:45.853Z,45824
2017-07-19T13:00:45.972Z,35328
2017-07-19T13:01:45.346Z,24704
2017-07-19T13:02:45.729Z,37952
2017-07-19T13:03:45.435Z,29504
2017-07-19T13:04:45.736Z,19520
2017-07-19T13:05:45.504Z,22912
2017-07-19T13:06:45.539Z,23808
2017-07-19T13:07:45.271Z,22816
2017-07-19T13:08:45.604Z,22816
2017-07-19T13:09:46.531Z,19264
2017-07-19T13:10:45.989Z,17832
2017-07-19T13:11:45.709Z,20672
2017-07-19T13:12:45.746Z,29088
2017-07-19T13:13:45.772Z,31360
2017-07-19T13:14:46.666Z,40320
2017-07-19T13:15:46.133Z,40896
2017-07-19T13:16:46.508Z,42944
2017-07-19T13:17:46.231Z,17568
2017-07-19T13:18:46.280Z,11656
2017-07-19T13:19:45.978Z,10708
2017-07-19T13:20:46.326Z,10732
2017-07-19T13:21:46.362Z,9336
2017-07-19T13:22:46.696Z,8372
2017-07-19T13:23:46.429Z,7760
2017-07-19T13:24:46.470Z,7344
2017-07-19T13:25:46.471Z,6892
2017-07-19T13:26:46.841Z,6820
2017-07-19T13:27:46.865Z,6840
2017-07-19T13:28:46.596Z,6524
2017-07-19T13:29:46.647Z,5936
2017-07-19T13:30:46.362Z,5664
2017-07-19T13:31:47.001Z,5428
2017-07-19T13:32:46.732Z,4604
2017-07-19T13:33:47.075Z,3864
2017-07-19T13:34:47.109Z,3064
2017-07-19T13:35:47.151Z,2416
2017-07-19T13:36:46.879Z,2096
2017-07-19T13:37:46.908Z,1960
2017-07-19T13:38:46.940Z,1960
2017-07-19T13:39:46.965Z,2056
2017-07-19T13:40:47.319Z,2260
2017-07-19T13:41:47.035Z,2272
2017-07-19T13:42:47.374Z,1960
2017-07-19T13:43:47.402Z,1600
2017-07-19T13:44:47.441Z,1344